sensor_id;sensor_type;location;lat;lon;timestamp;P1;durP1;ratioP1;P2;durP2;ratioP2
19179;SDS011;9722;48.754;8.868;2023-04-15T00:01:52;3.57;;;2.40;;
19179;SDS011;9722;48.754;8.868;2023-04-15T00:05:13;3.27;;;2.30;;
19179;SDS011;9722;48.754;8.868;2023-04-15T00:08:33;2.33;;;1.97;;
19179;SDS011;9722;48.754;8.868;2023-04-15T00:11:54;3.23;;;2.37;;
19179;SDS011;9722;48.754;8.868;2023-04-15T00:15:14;4.40;;;2.23;;
19179;SDS011;9722;48.754;8.868;2023-04-15T00:18:35;4.67;;;2.90;;
19179;SDS011;9722;48.754;8.868;2023-04-15T00:21:56;2.60;;;2.30;;
19179;SDS011;9722;48.754;8.868;2023-04-15T00:25:16;2.93;;;2.37;;
19179;SDS011;9722;48.754;8.868;2023-04-15T00:28:37;2.00;;;1.90;;
19179;SDS011;9722;48.754;8.868;2023-04-15T00:31:58;2.60;;;2.37;;
19179;SDS011;9722;48.754;8.868;2023-04-15T00:35:19;4.33;;;2.00;;
19179;SDS011;9722;48.754;8.868;2023-04-15T00:38:40;3.13;;;2.10;;
19179;SDS011;9722;48.754;8.868;2023-04-15T00:42:01;2.57;;;2.37;;
19179;SDS011;9722;48.754;8.868;2023-04-15T00:45:23;2.43;;;1.93;;
19179;SDS011;9722;48.754;8.868;2023-04-15T00:48:45;3.23;;;2.23;;
19179;SDS011;9722;48.754;8.868;2023-04-15T00:52:06;3.10;;;2.50;;
19179;SDS011;9722;48.754;8.868;2023-04-15T00:55:27;2.30;;;2.07;;
19179;SDS011;9722;48.754;8.868;2023-04-15T00:58:48;2.70;;;2.10;;
19179;SDS011;9722;48.754;8.868;2023-04-15T01:02:10;2.67;;;1.70;;
19179;SDS011;9722;48.754;8.868;2023-04-15T01:05:30;2.07;;;1.73;;
19179;SDS011;9722;48.754;8.868;2023-04-15T01:08:52;2.50;;;2.30;;
19179;SDS011;9722;48.754;8.868;2023-04-15T01:12:13;2.30;;;1.83;;
19179;SDS011;9722;48.754;8.868;2023-04-15T01:15:35;7.00;;;1.97;;
19179;SDS011;9722;48.754;8.868;2023-04-15T01:18:56;2.90;;;1.90;;
19179;SDS011;9722;48.754;8.868;2023-04-15T01:22:17;2.10;;;1.90;;
19179;SDS011;9722;48.754;8.868;2023-04-15T01:25:37;3.17;;;1.97;;
19179;SDS011;9722;48.754;8.868;2023-04-15T01:28:59;4.17;;;2.07;;
19179;SDS011;9722;48.754;8.868;2023-04-15T01:32:20;2.93;;;2.23;;
19179;SDS011;9722;48.754;8.868;2023-04-15T01:35:40;2.80;;;1.97;;
19179;SDS011;9722;48.754;8.868;2023-04-15T01:39:03;2.50;;;2.03;;
19179;SDS011;9722;48.754;8.868;2023-04-15T01:42:24;2.53;;;2.00;;
19179;SDS011;9722;48.754;8.868;2023-04-15T01:45:45;3.27;;;2.30;;
19179;SDS011;9722;48.754;8.868;2023-04-15T01:49:05;3.77;;;2.10;;
19179;SDS011;9722;48.754;8.868;2023-04-15T01:52:26;3.90;;;2.03;;
19179;SDS011;9722;48.754;8.868;2023-04-15T01:55:47;2.03;;;1.60;;
19179;SDS011;9722;48.754;8.868;2023-04-15T01:59:07;4.00;;;2.47;;
19179;SDS011;9722;48.754;8.868;2023-04-15T02:02:28;2.90;;;1.80;;
19179;SDS011;9722;48.754;8.868;2023-04-15T02:05:49;3.60;;;1.90;;
19179;SDS011;9722;48.754;8.868;2023-04-15T02:09:10;2.53;;;2.00;;
19179;SDS011;9722;48.754;8.868;2023-04-15T02:12:31;2.50;;;2.10;;
19179;SDS011;9722;48.754;8.868;2023-04-15T02:15:53;2.77;;;1.87;;
19179;SDS011;9722;48.754;8.868;2023-04-15T02:19:14;2.47;;;2.20;;
19179;SDS011;9722;48.754;8.868;2023-04-15T02:22:35;3.33;;;1.87;;
19179;SDS011;9722;48.754;8.868;2023-04-15T02:25:55;4.33;;;1.90;;
19179;SDS011;9722;48.754;8.868;2023-04-15T02:29:16;2.27;;;1.90;;
19179;SDS011;9722;48.754;8.868;2023-04-15T02:32:36;3.23;;;2.23;;
19179;SDS011;9722;48.754;8.868;2023-04-15T02:35:57;4.20;;;2.03;;
19179;SDS011;9722;48.754;8.868;2023-04-15T02:39:18;1.77;;;1.67;;
19179;SDS011;9722;48.754;8.868;2023-04-15T02:42:39;2.23;;;1.87;;
19179;SDS011;9722;48.754;8.868;2023-04-15T02:46:00;2.43;;;2.20;;
19179;SDS011;9722;48.754;8.868;2023-04-15T02:49:20;5.57;;;2.10;;
19179;SDS011;9722;48.754;8.868;2023-04-15T02:52:41;4.80;;;2.23;;
19179;SDS011;9722;48.754;8.868;2023-04-15T02:56:03;2.50;;;2.00;;
19179;SDS011;9722;48.754;8.868;2023-04-15T02:59:25;2.20;;;2.00;;
19179;SDS011;9722;48.754;8.868;2023-04-15T03:02:45;2.60;;;2.40;;
19179;SDS011;9722;48.754;8.868;2023-04-15T03:06:06;2.63;;;2.07;;
19179;SDS011;9722;48.754;8.868;2023-04-15T03:09:27;2.40;;;2.13;;
19179;SDS011;9722;48.754;8.868;2023-04-15T03:12:48;1.77;;;1.67;;
19179;SDS011;9722;48.754;8.868;2023-04-15T03:16:08;2.43;;;2.00;;
19179;SDS011;9722;48.754;8.868;2023-04-15T03:19:29;1.80;;;1.70;;
19179;SDS011;9722;48.754;8.868;2023-04-15T03:22:50;2.43;;;2.20;;
19179;SDS011;9722;48.754;8.868;2023-04-15T03:26:22;2.87;;;2.30;;
19179;SDS011;9722;48.754;8.868;2023-04-15T03:29:45;3.03;;;2.10;;
19179;SDS011;9722;48.754;8.868;2023-04-15T03:33:05;2.27;;;1.67;;
19179;SDS011;9722;48.754;8.868;2023-04-15T03:36:27;1.73;;;1.63;;
19179;SDS011;9722;48.754;8.868;2023-04-15T03:39:51;3.03;;;1.73;;
19179;SDS011;9722;48.754;8.868;2023-04-15T03:43:11;4.53;;;2.40;;
19179;SDS011;9722;48.754;8.868;2023-04-15T03:46:32;3.57;;;2.53;;
19179;SDS011;9722;48.754;8.868;2023-04-15T03:49:52;6.10;;;2.70;;
19179;SDS011;9722;48.754;8.868;2023-04-15T03:53:13;1.97;;;1.83;;
19179;SDS011;9722;48.754;8.868;2023-04-15T03:56:34;2.20;;;2.00;;
19179;SDS011;9722;48.754;8.868;2023-04-15T03:59:55;2.77;;;2.20;;
19179;SDS011;9722;48.754;8.868;2023-04-15T04:03:15;2.47;;;2.10;;
19179;SDS011;9722;48.754;8.868;2023-04-15T04:06:36;3.13;;;1.70;;
19179;SDS011;9722;48.754;8.868;2023-04-15T04:09:56;3.80;;;1.90;;
19179;SDS011;9722;48.754;8.868;2023-04-15T04:13:17;2.47;;;2.10;;
19179;SDS011;9722;48.754;8.868;2023-04-15T04:16:37;2.70;;;1.83;;
19179;SDS011;9722;48.754;8.868;2023-04-15T04:19:58;3.93;;;2.30;;
19179;SDS011;9722;48.754;8.868;2023-04-15T04:23:18;2.27;;;1.73;;
19179;SDS011;9722;48.754;8.868;2023-04-15T04:26:39;2.13;;;1.80;;
19179;SDS011;9722;48.754;8.868;2023-04-15T04:30:00;3.93;;;1.67;;
19179;SDS011;9722;48.754;8.868;2023-04-15T04:33:21;2.00;;;1.80;;
19179;SDS011;9722;48.754;8.868;2023-04-15T04:36:41;1.63;;;1.53;;
19179;SDS011;9722;48.754;8.868;2023-04-15T04:40:02;2.47;;;1.90;;
19179;SDS011;9722;48.754;8.868;2023-04-15T04:43:23;2.23;;;1.70;;
19179;SDS011;9722;48.754;8.868;2023-04-15T04:46:44;2.20;;;1.90;;
19179;SDS011;9722;48.754;8.868;2023-04-15T04:50:04;4.00;;;1.97;;
19179;SDS011;9722;48.754;8.868;2023-04-15T04:53:25;3.97;;;1.90;;
19179;SDS011;9722;48.754;8.868;2023-04-15T04:56:46;2.63;;;2.20;;
19179;SDS011;9722;48.754;8.868;2023-04-15T05:00:07;2.80;;;1.90;;
19179;SDS011;9722;48.754;8.868;2023-04-15T05:03:28;3.43;;;2.20;;
19179;SDS011;9722;48.754;8.868;2023-04-15T05:06:49;2.17;;;1.73;;
19179;SDS011;9722;48.754;8.868;2023-04-15T05:10:09;3.07;;;2.17;;
19179;SDS011;9722;48.754;8.868;2023-04-15T05:13:30;6.57;;;2.20;;
19179;SDS011;9722;48.754;8.868;2023-04-15T05:16:50;2.07;;;1.90;;
19179;SDS011;9722;48.754;8.868;2023-04-15T05:20:11;2.27;;;1.90;;
19179;SDS011;9722;48.754;8.868;2023-04-15T05:23:32;1.93;;;1.60;;
19179;SDS011;9722;48.754;8.868;2023-04-15T05:26:53;2.90;;;1.93;;
19179;SDS011;9722;48.754;8.868;2023-04-15T05:30:13;1.83;;;1.70;;
19179;SDS011;9722;48.754;8.868;2023-04-15T05:33:34;4.53;;;2.00;;
19179;SDS011;9722;48.754;8.868;2023-04-15T05:36:55;2.73;;;1.90;;
19179;SDS011;9722;48.754;8.868;2023-04-15T05:40:16;2.00;;;1.80;;
19179;SDS011;9722;48.754;8.868;2023-04-15T05:43:36;4.13;;;1.73;;
19179;SDS011;9722;48.754;8.868;2023-04-15T05:46:57;2.00;;;1.60;;
19179;SDS011;9722;48.754;8.868;2023-04-15T05:50:17;3.27;;;1.90;;
19179;SDS011;9722;48.754;8.868;2023-04-15T05:53:38;2.43;;;2.20;;
19179;SDS011;9722;48.754;8.868;2023-04-15T05:57:00;3.17;;;1.83;;
19179;SDS011;9722;48.754;8.868;2023-04-15T06:00:21;4.90;;;1.83;;
19179;SDS011;9722;48.754;8.868;2023-04-15T06:03:42;3.63;;;2.00;;
19179;SDS011;9722;48.754;8.868;2023-04-15T06:07:02;3.57;;;2.27;;
19179;SDS011;9722;48.754;8.868;2023-04-15T06:10:23;3.77;;;1.77;;
19179;SDS011;9722;48.754;8.868;2023-04-15T06:13:43;3.47;;;2.13;;
19179;SDS011;9722;48.754;8.868;2023-04-15T06:17:04;3.53;;;1.97;;
19179;SDS011;9722;48.754;8.868;2023-04-15T06:20:25;1.60;;;1.50;;
19179;SDS011;9722;48.754;8.868;2023-04-15T06:23:45;2.27;;;1.67;;
19179;SDS011;9722;48.754;8.868;2023-04-15T06:27:06;2.60;;;1.80;;
19179;SDS011;9722;48.754;8.868;2023-04-15T06:30:27;1.77;;;1.67;;
19179;SDS011;9722;48.754;8.868;2023-04-15T06:33:47;3.13;;;2.10;;
19179;SDS011;9722;48.754;8.868;2023-04-15T06:37:08;1.97;;;1.77;;
19179;SDS011;9722;48.754;8.868;2023-04-15T06:40:30;2.83;;;1.80;;
19179;SDS011;9722;48.754;8.868;2023-04-15T06:43:50;2.60;;;2.07;;
19179;SDS011;9722;48.754;8.868;2023-04-15T06:47:11;3.50;;;2.37;;
19179;SDS011;9722;48.754;8.868;2023-04-15T06:50:33;2.57;;;2.13;;
19179;SDS011;9722;48.754;8.868;2023-04-15T06:53:54;2.20;;;2.00;;
19179;SDS011;9722;48.754;8.868;2023-04-15T06:57:15;2.77;;;2.17;;
19179;SDS011;9722;48.754;8.868;2023-04-15T07:00:36;2.93;;;2.10;;
19179;SDS011;9722;48.754;8.868;2023-04-15T07:03:58;2.53;;;2.20;;
19179;SDS011;9722;48.754;8.868;2023-04-15T07:07:18;2.50;;;2.20;;
19179;SDS011;9722;48.754;8.868;2023-04-15T07:10:39;2.40;;;1.90;;
19179;SDS011;9722;48.754;8.868;2023-04-15T07:14:00;2.70;;;2.20;;
19179;SDS011;9722;48.754;8.868;2023-04-15T07:17:20;2.47;;;2.20;;
19179;SDS011;9722;48.754;8.868;2023-04-15T07:20:41;2.50;;;2.30;;
19179;SDS011;9722;48.754;8.868;2023-04-15T07:24:02;2.53;;;2.33;;
19179;SDS011;9722;48.754;8.868;2023-04-15T07:27:22;2.83;;;2.47;;
19179;SDS011;9722;48.754;8.868;2023-04-15T07:30:43;2.40;;;2.20;;
19179;SDS011;9722;48.754;8.868;2023-04-15T07:34:03;2.90;;;2.17;;
19179;SDS011;9722;48.754;8.868;2023-04-15T07:37:25;2.03;;;1.70;;
19179;SDS011;9722;48.754;8.868;2023-04-15T07:40:47;2.43;;;2.17;;
19179;SDS011;9722;48.754;8.868;2023-04-15T07:44:08;3.10;;;2.23;;
19179;SDS011;9722;48.754;8.868;2023-04-15T07:47:29;2.20;;;1.83;;
19179;SDS011;9722;48.754;8.868;2023-04-15T07:50:49;1.90;;;1.67;;
19179;SDS011;9722;48.754;8.868;2023-04-15T07:54:10;5.47;;;2.17;;
19179;SDS011;9722;48.754;8.868;2023-04-15T07:57:31;2.27;;;1.70;;
19179;SDS011;9722;48.754;8.868;2023-04-15T08:00:51;2.57;;;1.60;;
19179;SDS011;9722;48.754;8.868;2023-04-15T08:04:14;3.10;;;1.70;;
19179;SDS011;9722;48.754;8.868;2023-04-15T08:07:36;6.13;;;2.00;;
19179;SDS011;9722;48.754;8.868;2023-04-15T08:10:57;3.13;;;1.70;;
19179;SDS011;9722;48.754;8.868;2023-04-15T08:14:17;4.23;;;2.00;;
19179;SDS011;9722;48.754;8.868;2023-04-15T08:17:38;2.93;;;1.80;;
19179;SDS011;9722;48.754;8.868;2023-04-15T08:20:59;1.97;;;1.70;;
19179;SDS011;9722;48.754;8.868;2023-04-15T08:24:19;1.83;;;1.60;;
19179;SDS011;9722;48.754;8.868;2023-04-15T08:27:41;3.10;;;1.90;;
19179;SDS011;9722;48.754;8.868;2023-04-15T08:31:01;3.13;;;1.90;;
19179;SDS011;9722;48.754;8.868;2023-04-15T08:34:22;1.70;;;1.57;;
19179;SDS011;9722;48.754;8.868;2023-04-15T08:37:43;2.93;;;1.80;;
19179;SDS011;9722;48.754;8.868;2023-04-15T08:41:09;2.23;;;1.60;;
19179;SDS011;9722;48.754;8.868;2023-04-15T08:44:39;2.40;;;1.70;;
19179;SDS011;9722;48.754;8.868;2023-04-15T08:48:00;3.00;;;1.50;;
19179;SDS011;9722;48.754;8.868;2023-04-15T08:51:23;1.93;;;1.20;;
19179;SDS011;9722;48.754;8.868;2023-04-15T08:54:44;1.50;;;1.10;;
19179;SDS011;9722;48.754;8.868;2023-04-15T08:58:05;3.10;;;1.23;;
19179;SDS011;9722;48.754;8.868;2023-04-15T09:01:27;1.70;;;1.40;;
19179;SDS011;9722;48.754;8.868;2023-04-15T09:04:48;1.87;;;1.30;;
19179;SDS011;9722;48.754;8.868;2023-04-15T09:08:08;3.97;;;1.10;;
19179;SDS011;9722;48.754;8.868;2023-04-15T09:11:29;5.20;;;1.30;;
19179;SDS011;9722;48.754;8.868;2023-04-15T09:14:50;1.60;;;1.20;;
19179;SDS011;9722;48.754;8.868;2023-04-15T09:18:11;2.10;;;1.20;;
19179;SDS011;9722;48.754;8.868;2023-04-15T09:21:32;1.87;;;1.10;;
19179;SDS011;9722;48.754;8.868;2023-04-15T09:24:53;2.63;;;1.50;;
19179;SDS011;9722;48.754;8.868;2023-04-15T09:28:14;1.73;;;1.00;;
19179;SDS011;9722;48.754;8.868;2023-04-15T09:31:35;1.77;;;1.00;;
19179;SDS011;9722;48.754;8.868;2023-04-15T09:34:56;1.80;;;1.10;;
19179;SDS011;9722;48.754;8.868;2023-04-15T09:38:17;1.70;;;0.87;;
19179;SDS011;9722;48.754;8.868;2023-04-15T09:41:37;1.47;;;1.03;;
19179;SDS011;9722;48.754;8.868;2023-04-15T09:45:08;1.97;;;0.90;;
19179;SDS011;9722;48.754;8.868;2023-04-15T09:48:30;2.27;;;1.30;;
19179;SDS011;9722;48.754;8.868;2023-04-15T09:51:59;1.97;;;0.93;;
19179;SDS011;9722;48.754;8.868;2023-04-15T09:55:20;1.13;;;0.90;;
19179;SDS011;9722;48.754;8.868;2023-04-15T09:58:41;1.37;;;0.80;;
19179;SDS011;9722;48.754;8.868;2023-04-15T10:02:03;3.97;;;1.30;;
19179;SDS011;9722;48.754;8.868;2023-04-15T10:05:25;1.53;;;0.90;;
19179;SDS011;9722;48.754;8.868;2023-04-15T10:08:46;1.67;;;1.00;;
19179;SDS011;9722;48.754;8.868;2023-04-15T10:12:07;1.57;;;1.10;;
19179;SDS011;9722;48.754;8.868;2023-04-15T10:15:28;2.00;;;1.00;;
19179;SDS011;9722;48.754;8.868;2023-04-15T10:18:50;1.73;;;1.17;;
19179;SDS011;9722;48.754;8.868;2023-04-15T10:22:16;2.17;;;1.33;;
19179;SDS011;9722;48.754;8.868;2023-04-15T10:25:37;1.70;;;1.03;;
19179;SDS011;9722;48.754;8.868;2023-04-15T10:28:58;1.10;;;0.90;;
19179;SDS011;9722;48.754;8.868;2023-04-15T10:32:20;2.93;;;1.10;;
19179;SDS011;9722;48.754;8.868;2023-04-15T10:35:42;1.43;;;0.90;;
19179;SDS011;9722;48.754;8.868;2023-04-15T10:39:37;1.17;;;0.83;;
19179;SDS011;9722;48.754;8.868;2023-04-15T10:42:54;1.10;;;0.90;;
19179;SDS011;9722;48.754;8.868;2023-04-15T10:49:57;1.67;;;1.20;;
19179;SDS011;9722;48.754;8.868;2023-04-15T10:53:26;1.83;;;1.20;;
19179;SDS011;9722;48.754;8.868;2023-04-15T10:56:50;3.30;;;1.40;;
19179;SDS011;9722;48.754;8.868;2023-04-15T11:00:31;1.60;;;1.50;;
19179;SDS011;9722;48.754;8.868;2023-04-15T11:03:52;2.13;;;1.43;;
19179;SDS011;9722;48.754;8.868;2023-04-15T11:07:14;2.13;;;1.20;;
19179;SDS011;9722;48.754;8.868;2023-04-15T11:13:58;1.70;;;1.53;;
19179;SDS011;9722;48.754;8.868;2023-04-15T11:17:27;2.40;;;1.50;;
19179;SDS011;9722;48.754;8.868;2023-04-15T11:20:49;3.00;;;1.60;;
19179;SDS011;9722;48.754;8.868;2023-04-15T11:24:10;2.70;;;1.80;;
19179;SDS011;9722;48.754;8.868;2023-04-15T11:27:30;3.30;;;1.70;;
19179;SDS011;9722;48.754;8.868;2023-04-15T11:30:51;1.87;;;1.73;;
19179;SDS011;9722;48.754;8.868;2023-04-15T11:34:13;2.30;;;1.70;;
19179;SDS011;9722;48.754;8.868;2023-04-15T11:37:41;1.97;;;1.20;;
19179;SDS011;9722;48.754;8.868;2023-04-15T11:41:02;2.87;;;1.50;;
19179;SDS011;9722;48.754;8.868;2023-04-15T11:44:23;2.83;;;1.50;;
19179;SDS011;9722;48.754;8.868;2023-04-15T11:47:43;1.93;;;1.57;;
19179;SDS011;9722;48.754;8.868;2023-04-15T11:51:05;2.37;;;1.60;;
19179;SDS011;9722;48.754;8.868;2023-04-15T11:54:26;3.03;;;2.00;;
19179;SDS011;9722;48.754;8.868;2023-04-15T11:57:46;1.70;;;1.50;;
19179;SDS011;9722;48.754;8.868;2023-04-15T12:01:07;1.97;;;1.73;;
19179;SDS011;9722;48.754;8.868;2023-04-15T12:04:27;3.23;;;1.73;;
19179;SDS011;9722;48.754;8.868;2023-04-15T12:07:57;2.43;;;2.00;;
19179;SDS011;9722;48.754;8.868;2023-04-15T12:11:19;2.97;;;2.07;;
19179;SDS011;9722;48.754;8.868;2023-04-15T12:14:40;3.37;;;2.63;;
19179;SDS011;9722;48.754;8.868;2023-04-15T12:18:01;3.07;;;2.77;;
19179;SDS011;9722;48.754;8.868;2023-04-15T12:21:22;3.47;;;2.83;;
19179;SDS011;9722;48.754;8.868;2023-04-15T12:24:43;2.43;;;2.23;;
19179;SDS011;9722;48.754;8.868;2023-04-15T12:28:10;2.40;;;2.20;;
19179;SDS011;9722;48.754;8.868;2023-04-15T12:31:31;3.47;;;2.43;;
19179;SDS011;9722;48.754;8.868;2023-04-15T12:34:52;2.93;;;2.63;;
19179;SDS011;9722;48.754;8.868;2023-04-15T12:38:13;3.73;;;2.83;;
19179;SDS011;9722;48.754;8.868;2023-04-15T12:41:33;3.07;;;2.67;;
19179;SDS011;9722;48.754;8.868;2023-04-15T12:44:54;4.20;;;2.83;;
19179;SDS011;9722;48.754;8.868;2023-04-15T12:48:15;3.67;;;2.23;;
19179;SDS011;9722;48.754;8.868;2023-04-15T12:51:35;3.30;;;2.70;;
19179;SDS011;9722;48.754;8.868;2023-04-15T12:54:56;2.70;;;2.33;;
19179;SDS011;9722;48.754;8.868;2023-04-15T12:58:16;3.83;;;2.53;;
19179;SDS011;9722;48.754;8.868;2023-04-15T13:01:37;3.07;;;2.03;;
19179;SDS011;9722;48.754;8.868;2023-04-15T13:04:58;3.60;;;2.40;;
19179;SDS011;9722;48.754;8.868;2023-04-15T13:08:18;2.50;;;2.20;;
19179;SDS011;9722;48.754;8.868;2023-04-15T13:11:39;2.20;;;2.00;;
19179;SDS011;9722;48.754;8.868;2023-04-15T13:15:00;2.10;;;2.00;;
19179;SDS011;9722;48.754;8.868;2023-04-15T13:18:21;4.27;;;2.50;;
19179;SDS011;9722;48.754;8.868;2023-04-15T13:21:42;2.53;;;2.10;;
19179;SDS011;9722;48.754;8.868;2023-04-15T13:25:03;3.07;;;2.77;;
19179;SDS011;9722;48.754;8.868;2023-04-15T13:28:24;3.53;;;3.23;;
19179;SDS011;9722;48.754;8.868;2023-04-15T13:31:44;3.40;;;3.10;;
19179;SDS011;9722;48.754;8.868;2023-04-15T13:35:05;3.10;;;2.90;;
19179;SDS011;9722;48.754;8.868;2023-04-15T13:38:25;3.93;;;3.17;;
19179;SDS011;9722;48.754;8.868;2023-04-15T13:41:46;3.00;;;2.70;;
19179;SDS011;9722;48.754;8.868;2023-04-15T13:45:07;3.20;;;2.90;;
19179;SDS011;9722;48.754;8.868;2023-04-15T13:48:28;2.77;;;2.43;;
19179;SDS011;9722;48.754;8.868;2023-04-15T13:51:49;3.00;;;2.40;;
19179;SDS011;9722;48.754;8.868;2023-04-15T13:55:10;2.67;;;2.10;;
19179;SDS011;9722;48.754;8.868;2023-04-15T13:58:31;2.30;;;2.10;;
19179;SDS011;9722;48.754;8.868;2023-04-15T14:01:51;3.30;;;1.70;;
19179;SDS011;9722;48.754;8.868;2023-04-15T14:05:12;4.50;;;1.60;;
19179;SDS011;9722;48.754;8.868;2023-04-15T14:08:32;2.20;;;1.60;;
19179;SDS011;9722;48.754;8.868;2023-04-15T14:11:53;2.13;;;1.80;;
19179;SDS011;9722;48.754;8.868;2023-04-15T14:15:13;4.07;;;1.63;;
19179;SDS011;9722;48.754;8.868;2023-04-15T14:18:34;2.80;;;1.80;;
19179;SDS011;9722;48.754;8.868;2023-04-15T14:21:56;2.20;;;1.60;;
19179;SDS011;9722;48.754;8.868;2023-04-15T14:25:17;2.70;;;1.60;;
19179;SDS011;9722;48.754;8.868;2023-04-15T14:28:37;2.50;;;1.67;;
19179;SDS011;9722;48.754;8.868;2023-04-15T14:31:58;3.07;;;1.30;;
19179;SDS011;9722;48.754;8.868;2023-04-15T14:35:18;1.50;;;1.40;;
19179;SDS011;9722;48.754;8.868;2023-04-15T14:38:39;1.90;;;1.60;;
19179;SDS011;9722;48.754;8.868;2023-04-15T14:42:00;4.50;;;1.80;;
19179;SDS011;9722;48.754;8.868;2023-04-15T14:45:20;1.60;;;1.50;;
19179;SDS011;9722;48.754;8.868;2023-04-15T14:48:41;2.67;;;1.70;;
19179;SDS011;9722;48.754;8.868;2023-04-15T14:52:02;2.37;;;1.77;;
19179;SDS011;9722;48.754;8.868;2023-04-15T14:55:23;2.97;;;1.83;;
19179;SDS011;9722;48.754;8.868;2023-04-15T14:58:43;1.50;;;1.40;;
19179;SDS011;9722;48.754;8.868;2023-04-15T15:02:04;3.00;;;1.60;;
19179;SDS011;9722;48.754;8.868;2023-04-15T15:05:24;2.07;;;1.73;;
19179;SDS011;9722;48.754;8.868;2023-04-15T15:08:45;1.83;;;1.60;;
19179;SDS011;9722;48.754;8.868;2023-04-15T15:12:05;3.97;;;1.97;;
19179;SDS011;9722;48.754;8.868;2023-04-15T15:15:26;3.03;;;1.80;;
19179;SDS011;9722;48.754;8.868;2023-04-15T15:18:46;2.13;;;1.63;;
19179;SDS011;9722;48.754;8.868;2023-04-15T15:22:07;2.97;;;1.70;;
19179;SDS011;9722;48.754;8.868;2023-04-15T15:25:27;2.40;;;1.83;;
19179;SDS011;9722;48.754;8.868;2023-04-15T15:28:48;2.10;;;1.60;;
19179;SDS011;9722;48.754;8.868;2023-04-15T15:32:09;3.87;;;1.70;;
19179;SDS011;9722;48.754;8.868;2023-04-15T15:35:30;1.67;;;1.57;;
19179;SDS011;9722;48.754;8.868;2023-04-15T15:38:51;1.87;;;1.70;;
19179;SDS011;9722;48.754;8.868;2023-04-15T15:42:12;3.27;;;1.57;;
19179;SDS011;9722;48.754;8.868;2023-04-15T15:45:32;1.80;;;1.53;;
19179;SDS011;9722;48.754;8.868;2023-04-15T15:48:53;2.53;;;1.50;;
19179;SDS011;9722;48.754;8.868;2023-04-15T15:52:14;2.50;;;2.30;;
19179;SDS011;9722;48.754;8.868;2023-04-15T15:55:35;3.97;;;2.73;;
19179;SDS011;9722;48.754;8.868;2023-04-15T15:58:55;4.03;;;2.53;;
19179;SDS011;9722;48.754;8.868;2023-04-15T16:02:16;2.13;;;1.60;;
19179;SDS011;9722;48.754;8.868;2023-04-15T16:05:37;3.60;;;2.47;;
19179;SDS011;9722;48.754;8.868;2023-04-15T16:08:57;3.10;;;1.27;;
19179;SDS011;9722;48.754;8.868;2023-04-15T16:12:18;1.67;;;1.33;;
19179;SDS011;9722;48.754;8.868;2023-04-15T16:15:39;1.10;;;1.00;;
19179;SDS011;9722;48.754;8.868;2023-04-15T16:18:59;5.13;;;1.00;;
19179;SDS011;9722;48.754;8.868;2023-04-15T16:22:20;3.33;;;0.90;;
19179;SDS011;9722;48.754;8.868;2023-04-15T16:25:41;0.77;;;0.77;;
19179;SDS011;9722;48.754;8.868;2023-04-15T16:29:03;1.03;;;0.93;;
19179;SDS011;9722;48.754;8.868;2023-04-15T16:32:23;0.87;;;0.80;;
19179;SDS011;9722;48.754;8.868;2023-04-15T16:35:44;1.57;;;1.00;;
19179;SDS011;9722;48.754;8.868;2023-04-15T16:39:05;0.93;;;0.93;;
19179;SDS011;9722;48.754;8.868;2023-04-15T16:42:25;1.00;;;1.00;;
19179;SDS011;9722;48.754;8.868;2023-04-15T16:45:46;1.20;;;1.10;;
19179;SDS011;9722;48.754;8.868;2023-04-15T16:49:12;1.63;;;0.97;;
19179;SDS011;9722;48.754;8.868;2023-04-15T16:52:32;1.20;;;1.10;;
19179;SDS011;9722;48.754;8.868;2023-04-15T16:55:53;1.27;;;1.17;;
19179;SDS011;9722;48.754;8.868;2023-04-15T16:59:13;1.10;;;1.10;;
19179;SDS011;9722;48.754;8.868;2023-04-15T17:02:34;1.20;;;1.10;;
19179;SDS011;9722;48.754;8.868;2023-04-15T17:05:54;1.00;;;1.00;;
19179;SDS011;9722;48.754;8.868;2023-04-15T17:09:15;1.30;;;1.20;;
19179;SDS011;9722;48.754;8.868;2023-04-15T17:12:36;1.00;;;1.00;;
19179;SDS011;9722;48.754;8.868;2023-04-15T17:15:56;1.27;;;1.00;;
19179;SDS011;9722;48.754;8.868;2023-04-15T17:19:17;1.10;;;1.00;;
19179;SDS011;9722;48.754;8.868;2023-04-15T17:22:37;0.87;;;0.80;;
19179;SDS011;9722;48.754;8.868;2023-04-15T17:25:58;0.77;;;0.77;;
19179;SDS011;9722;48.754;8.868;2023-04-15T17:29:18;2.00;;;1.07;;
19179;SDS011;9722;48.754;8.868;2023-04-15T17:32:39;0.90;;;0.90;;
19179;SDS011;9722;48.754;8.868;2023-04-15T17:36:00;1.00;;;1.00;;
19179;SDS011;9722;48.754;8.868;2023-04-15T17:39:20;0.90;;;0.90;;
19179;SDS011;9722;48.754;8.868;2023-04-15T17:42:41;1.20;;;1.10;;
19179;SDS011;9722;48.754;8.868;2023-04-15T17:46:02;1.47;;;1.37;;
19179;SDS011;9722;48.754;8.868;2023-04-15T17:49:22;2.17;;;1.97;;
19179;SDS011;9722;48.754;8.868;2023-04-15T17:52:43;3.27;;;2.10;;
19179;SDS011;9722;48.754;8.868;2023-04-15T17:56:03;1.60;;;1.50;;
19179;SDS011;9722;48.754;8.868;2023-04-15T17:59:24;2.17;;;1.97;;
19179;SDS011;9722;48.754;8.868;2023-04-15T18:02:45;2.50;;;2.30;;
19179;SDS011;9722;48.754;8.868;2023-04-15T18:06:07;2.60;;;2.40;;
19179;SDS011;9722;48.754;8.868;2023-04-15T18:09:27;3.40;;;2.73;;
19179;SDS011;9722;48.754;8.868;2023-04-15T18:12:48;1.50;;;1.40;;
19179;SDS011;9722;48.754;8.868;2023-04-15T18:16:09;2.00;;;1.90;;
19179;SDS011;9722;48.754;8.868;2023-04-15T18:19:29;2.27;;;2.17;;
19179;SDS011;9722;48.754;8.868;2023-04-15T18:22:50;2.70;;;2.50;;
19179;SDS011;9722;48.754;8.868;2023-04-15T18:26:11;2.03;;;1.87;;
19179;SDS011;9722;48.754;8.868;2023-04-15T18:29:32;1.87;;;1.77;;
19179;SDS011;9722;48.754;8.868;2023-04-15T18:32:53;1.97;;;1.87;;
19179;SDS011;9722;48.754;8.868;2023-04-15T18:36:14;2.37;;;2.27;;
19179;SDS011;9722;48.754;8.868;2023-04-15T18:39:34;2.10;;;2.00;;
19179;SDS011;9722;48.754;8.868;2023-04-15T18:42:55;1.97;;;1.87;;
19179;SDS011;9722;48.754;8.868;2023-04-15T18:46:15;2.20;;;2.10;;
19179;SDS011;9722;48.754;8.868;2023-04-15T18:49:36;2.20;;;2.10;;
19179;SDS011;9722;48.754;8.868;2023-04-15T18:52:56;2.50;;;2.40;;
19179;SDS011;9722;48.754;8.868;2023-04-15T18:56:17;2.70;;;2.50;;
19179;SDS011;9722;48.754;8.868;2023-04-15T18:59:37;2.60;;;2.40;;
19179;SDS011;9722;48.754;8.868;2023-04-15T19:02:58;2.50;;;2.30;;
19179;SDS011;9722;48.754;8.868;2023-04-15T19:06:21;2.80;;;2.60;;
19179;SDS011;9722;48.754;8.868;2023-04-15T19:09:41;3.03;;;2.80;;
19179;SDS011;9722;48.754;8.868;2023-04-15T19:13:02;3.03;;;2.83;;
19179;SDS011;9722;48.754;8.868;2023-04-15T19:16:22;2.43;;;2.23;;
19179;SDS011;9722;48.754;8.868;2023-04-15T19:19:43;2.77;;;2.57;;
19179;SDS011;9722;48.754;8.868;2023-04-15T19:23:03;2.23;;;2.03;;
19179;SDS011;9722;48.754;8.868;2023-04-15T19:26:24;1.93;;;1.83;;
19179;SDS011;9722;48.754;8.868;2023-04-15T19:29:45;2.30;;;2.10;;
19179;SDS011;9722;48.754;8.868;2023-04-15T19:33:05;2.27;;;2.10;;
19179;SDS011;9722;48.754;8.868;2023-04-15T19:36:26;2.77;;;2.57;;
19179;SDS011;9722;48.754;8.868;2023-04-15T19:39:47;2.70;;;2.50;;
19179;SDS011;9722;48.754;8.868;2023-04-15T19:43:08;2.60;;;2.40;;
19179;SDS011;9722;48.754;8.868;2023-04-15T19:46:28;3.27;;;3.07;;
19179;SDS011;9722;48.754;8.868;2023-04-15T19:49:49;2.63;;;2.43;;
19179;SDS011;9722;48.754;8.868;2023-04-15T19:53:10;2.90;;;2.70;;
19179;SDS011;9722;48.754;8.868;2023-04-15T19:56:30;2.90;;;2.63;;
19179;SDS011;9722;48.754;8.868;2023-04-15T19:59:51;2.57;;;2.37;;
19179;SDS011;9722;48.754;8.868;2023-04-15T20:03:12;3.20;;;2.90;;
19179;SDS011;9722;48.754;8.868;2023-04-15T20:06:32;3.10;;;2.90;;
19179;SDS011;9722;48.754;8.868;2023-04-15T20:09:53;3.07;;;2.87;;
19179;SDS011;9722;48.754;8.868;2023-04-15T20:13:13;2.90;;;2.60;;
19179;SDS011;9722;48.754;8.868;2023-04-15T20:16:34;3.00;;;2.80;;
19179;SDS011;9722;48.754;8.868;2023-04-15T20:19:57;4.40;;;3.20;;
19179;SDS011;9722;48.754;8.868;2023-04-15T20:23:17;2.93;;;2.73;;
19179;SDS011;9722;48.754;8.868;2023-04-15T20:26:38;2.90;;;2.70;;
19179;SDS011;9722;48.754;8.868;2023-04-15T20:29:58;3.10;;;2.90;;
19179;SDS011;9722;48.754;8.868;2023-04-15T20:33:19;3.20;;;3.00;;
19179;SDS011;9722;48.754;8.868;2023-04-15T20:36:41;2.83;;;2.63;;